createdAt,value
2024-03-16T00:01:56.871Z,10.47
2024-03-16T00:04:47.523Z,10.49
2024-03-16T00:07:37.739Z,10.49
2024-03-16T00:10:27.984Z,10.49
2024-03-16T00:13:18.113Z,10.49
2024-03-16T00:16:07.914Z,10.48
2024-03-16T00:18:57.806Z,10.49
2024-03-16T00:21:47.740Z,10.48
2024-03-16T00:24:37.382Z,10.49
2024-03-16T00:27:27.545Z,10.52
2024-03-16T00:30:17.193Z,10.54
2024-03-16T00:33:08.764Z,10.57
2024-03-16T00:35:58.688Z,10.61
2024-03-16T00:38:51.405Z,10.65
2024-03-16T00:41:44.715Z,10.68
2024-03-16T00:44:34.581Z,10.70
2024-03-16T00:47:24.941Z,10.70
2024-03-16T00:50:16.190Z,10.70
2024-03-16T00:53:06.169Z,10.69
2024-03-16T00:55:56.669Z,10.67
2024-03-16T00:58:47.063Z,10.65
2024-03-16T01:01:37.582Z,10.64
2024-03-16T01:04:28.778Z,10.62
2024-03-16T01:07:18.668Z,10.64
2024-03-16T01:10:09.027Z,10.65
2024-03-16T01:12:59.710Z,10.65
2024-03-16T01:15:49.753Z,10.64
2024-03-16T01:18:41.906Z,10.61
2024-03-16T01:21:31.577Z,10.58
2024-03-16T01:24:20.913Z,10.56
2024-03-16T01:27:10.910Z,10.51
2024-03-16T01:30:01.601Z,10.48
2024-03-16T01:32:52.054Z,10.43
2024-03-16T01:35:41.983Z,10.39
2024-03-16T01:38:31.972Z,10.34
2024-03-16T01:41:21.639Z,10.31
2024-03-16T01:44:14.187Z,10.32
2024-03-16T01:47:04.889Z,10.31
2024-03-16T01:49:54.979Z,10.28
2024-03-16T01:52:44.455Z,10.22
2024-03-16T01:55:35.037Z,10.18
2024-03-16T01:58:25.549Z,10.15
2024-03-16T02:01:16.059Z,10.11
2024-03-16T02:04:06.610Z,10.08
2024-03-16T02:06:56.453Z,10.05
2024-03-16T02:09:46.143Z,10.02
2024-03-16T02:12:36.538Z,10.01
2024-03-16T02:15:26.831Z,10.01
2024-03-16T02:18:17.383Z,10.04
2024-03-16T02:21:13.233Z,10.06
2024-03-16T02:24:03.410Z,10.08
2024-03-16T02:26:53.088Z,10.07
2024-03-16T02:29:43.638Z,10.06
2024-03-16T02:32:33.268Z,10.06
2024-03-16T02:35:24.439Z,10.07
2024-03-16T02:38:15.062Z,10.06
2024-03-16T02:41:04.837Z,10.05
2024-03-16T02:43:54.417Z,9.98
2024-03-16T02:46:44.807Z,9.88
2024-03-16T02:49:34.383Z,9.77
2024-03-16T02:52:24.783Z,9.72
2024-03-16T02:55:15.173Z,9.69
2024-03-16T02:58:06.562Z,9.68
2024-03-16T03:00:57.169Z,9.67
2024-03-16T03:03:47.308Z,9.66
2024-03-16T03:06:37.195Z,9.64
2024-03-16T03:09:27.488Z,9.65
2024-03-16T03:12:18.251Z,9.65
2024-03-16T03:15:08.242Z,9.66
2024-03-16T03:17:58.177Z,9.66
2024-03-16T03:20:48.430Z,9.66
2024-03-16T03:23:38.192Z,9.65
2024-03-16T03:26:30.718Z,9.65
2024-03-16T03:29:21.543Z,9.66
2024-03-16T03:32:11.031Z,9.68
2024-03-16T03:35:01.511Z,9.71
2024-03-16T03:37:51.392Z,9.73
2024-03-16T03:40:43.831Z,9.76
2024-03-16T03:43:34.944Z,9.75
2024-03-16T03:46:41.308Z,9.75
2024-03-16T03:49:34.538Z,9.73
2024-03-16T03:52:23.872Z,9.74
2024-03-16T03:55:13.574Z,9.77
2024-03-16T03:58:04.507Z,9.77
2024-03-16T04:00:54.862Z,9.78
2024-03-16T04:03:44.746Z,9.78
2024-03-16T04:06:34.930Z,9.77
2024-03-16T04:09:24.570Z,9.79
2024-03-16T04:12:14.243Z,9.82
2024-03-16T04:15:05.251Z,9.84
2024-03-16T04:17:55.477Z,9.86
2024-03-16T04:20:45.327Z,9.86
2024-03-16T04:23:35.654Z,9.85
2024-03-16T04:26:25.310Z,9.85
2024-03-16T04:29:15.200Z,9.84
2024-03-16T04:32:05.470Z,9.84
2024-03-16T04:34:55.765Z,9.84
2024-03-16T04:37:46.364Z,9.84
2024-03-16T04:40:36.973Z,9.82
2024-03-16T04:43:26.539Z,9.78
2024-03-16T04:46:17.239Z,9.72
2024-03-16T04:49:08.639Z,9.67
2024-03-16T04:51:58.674Z,9.63
2024-03-16T04:54:48.941Z,9.60
2024-03-16T04:57:39.548Z,9.56
2024-03-16T05:00:29.793Z,9.51
2024-03-16T05:03:20.226Z,9.46
2024-03-16T05:06:09.793Z,9.42
2024-03-16T05:08:59.883Z,9.38
2024-03-16T05:11:49.662Z,9.38
2024-03-16T05:14:39.542Z,9.38
2024-03-16T05:17:30.272Z,9.39
2024-03-16T05:20:20.626Z,9.40
2024-03-16T05:23:11.234Z,9.44
2024-03-16T05:26:01.141Z,9.50
2024-03-16T05:28:51.381Z,9.55
2024-03-16T05:31:41.606Z,9.63
2024-03-16T05:34:31.072Z,9.72
2024-03-16T05:37:20.960Z,9.83
2024-03-16T05:40:11.799Z,9.95
2024-03-16T05:43:01.785Z,10.09
2024-03-16T05:45:52.704Z,10.28
2024-03-16T05:48:42.488Z,10.57
2024-03-16T05:51:32.670Z,10.99
2024-03-16T05:54:22.291Z,11.82
2024-03-16T05:57:11.982Z,12.90
2024-03-16T06:00:01.986Z,13.78
2024-03-16T06:03:02.389Z,14.18
2024-03-16T06:05:53.006Z,14.21
2024-03-16T06:08:42.656Z,14.14
2024-03-16T06:11:32.593Z,14.00
2024-03-16T06:14:22.324Z,13.89
2024-03-16T06:17:12.415Z,13.82
2024-03-16T06:20:05.569Z,13.93
2024-03-16T06:22:57.201Z,14.16
2024-03-16T06:25:52.208Z,14.46
2024-03-16T06:28:44.587Z,14.79
2024-03-16T06:31:36.980Z,15.22
2024-03-16T06:34:26.553Z,15.74
2024-03-16T06:37:18.524Z,16.62
2024-03-16T06:40:08.713Z,17.86
2024-03-16T06:42:58.443Z,18.39
2024-03-16T06:45:48.878Z,18.31
2024-03-16T06:48:38.947Z,18.00
2024-03-16T06:51:28.867Z,17.64
2024-03-16T06:54:18.601Z,17.36
2024-03-16T06:57:08.381Z,17.15
2024-03-16T06:59:58.157Z,16.95
2024-03-16T07:02:47.935Z,16.72
2024-03-16T07:05:38.874Z,16.44
2024-03-16T07:08:28.823Z,16.16
2024-03-16T07:11:20.456Z,15.95
2024-03-16T07:14:10.128Z,15.81
2024-03-16T07:17:00.124Z,15.67
2024-03-16T07:19:50.511Z,15.49
2024-03-16T07:22:40.174Z,15.38
2024-03-16T07:25:30.278Z,15.43
2024-03-16T07:28:20.326Z,15.89
2024-03-16T07:31:10.104Z,16.64
2024-03-16T07:34:03.030Z,17.25
2024-03-16T07:36:53.750Z,17.80
2024-03-16T07:39:43.287Z,18.48
2024-03-16T07:42:33.224Z,19.33
2024-03-16T07:45:23.159Z,20.22
2024-03-16T07:48:12.434Z,21.12
2024-03-16T07:51:02.503Z,21.68
2024-03-16T07:53:52.267Z,21.65
2024-03-16T07:56:41.839Z,21.35
2024-03-16T07:59:31.207Z,21.06
2024-03-16T08:02:21.387Z,20.72
2024-03-16T08:05:12.671Z,20.37
2024-03-16T08:08:03.319Z,20.14
2024-03-16T08:10:56.169Z,19.96
2024-03-16T08:13:46.875Z,19.78
2024-03-16T08:16:36.752Z,19.72
2024-03-16T08:19:26.128Z,19.74
2024-03-16T08:22:15.865Z,19.72
2024-03-16T08:25:07.550Z,19.76
2024-03-16T08:27:58.606Z,19.89
2024-03-16T08:30:48.649Z,20.02
2024-03-16T08:33:38.873Z,20.08
2024-03-16T08:36:29.159Z,20.14
2024-03-16T08:39:19.948Z,20.20
2024-03-16T08:42:09.873Z,20.19
2024-03-16T08:44:59.577Z,20.20
2024-03-16T08:47:49.678Z,20.18
2024-03-16T08:50:39.954Z,20.13
2024-03-16T08:53:29.420Z,20.08
2024-03-16T08:56:19.622Z,20.06
2024-03-16T08:59:09.394Z,20.01
2024-03-16T09:02:00.945Z,19.92
2024-03-16T09:04:57.881Z,19.79
2024-03-16T09:07:47.542Z,19.63
2024-03-16T09:10:37.733Z,19.53
2024-03-16T09:13:27.519Z,19.43
2024-03-16T09:16:17.832Z,19.41
2024-03-16T09:19:08.720Z,19.42
2024-03-16T09:21:58.387Z,19.36
2024-03-16T09:24:49.027Z,19.27
2024-03-16T09:27:39.092Z,19.19
2024-03-16T09:30:29.047Z,19.15
2024-03-16T09:33:19.240Z,19.13
2024-03-16T09:36:08.911Z,19.14
2024-03-16T09:38:59.511Z,19.17
2024-03-16T09:41:49.601Z,19.20
2024-03-16T09:44:39.587Z,19.23
2024-03-16T09:47:29.678Z,19.22
2024-03-16T09:50:20.736Z,19.24
2024-03-16T09:53:11.491Z,19.28
2024-03-16T09:56:05.817Z,19.29
2024-03-16T09:58:58.134Z,19.24
2024-03-16T10:01:49.243Z,19.19
2024-03-16T10:04:41.781Z,19.14
2024-03-16T10:07:33.395Z,19.10
2024-03-16T10:10:23.170Z,19.10
2024-03-16T10:13:13.491Z,19.22
2024-03-16T10:16:03.523Z,19.42
2024-03-16T10:18:55.807Z,19.72
2024-03-16T10:21:47.535Z,20.04
2024-03-16T10:24:37.399Z,20.28
2024-03-16T10:27:26.983Z,20.27
2024-03-16T10:30:17.867Z,20.06
2024-03-16T10:33:07.859Z,19.75
2024-03-16T10:35:57.845Z,19.50
2024-03-16T10:38:51.734Z,19.33
2024-03-16T10:41:41.915Z,19.20
2024-03-16T10:44:32.001Z,19.05
2024-03-16T10:47:22.182Z,18.87
2024-03-16T10:50:12.172Z,18.73
2024-03-16T10:53:04.107Z,18.60
2024-03-16T10:55:54.254Z,18.42
2024-03-16T10:58:44.073Z,18.24
2024-03-16T11:01:34.151Z,18.06
2024-03-16T11:04:24.350Z,17.93
2024-03-16T11:07:15.595Z,17.80
2024-03-16T11:10:04.932Z,17.65
2024-03-16T11:13:14.528Z,17.47
2024-03-16T11:16:37.052Z,17.28
2024-03-16T11:19:26.600Z,17.07
2024-03-16T11:22:15.964Z,16.91
2024-03-16T11:25:19.810Z,16.79
2024-03-16T11:28:09.565Z,16.69
2024-03-16T11:30:59.577Z,16.63
2024-03-16T11:33:51.518Z,16.58
2024-03-16T11:36:54.973Z,16.59
2024-03-16T11:39:45.624Z,16.68
2024-03-16T11:42:38.145Z,16.81
2024-03-16T11:45:28.202Z,16.91
2024-03-16T11:48:17.992Z,17.03
2024-03-16T11:51:11.143Z,17.14
2024-03-16T11:54:02.362Z,17.22
2024-03-16T11:56:52.138Z,17.32
2024-03-16T11:59:41.617Z,17.42
2024-03-16T12:02:31.657Z,17.51
2024-03-16T12:05:21.285Z,17.63
2024-03-16T12:08:12.174Z,17.72
2024-03-16T12:11:02.878Z,17.79
2024-03-16T12:14:02.402Z,17.89
2024-03-16T12:16:51.960Z,18.01
2024-03-16T12:19:42.052Z,18.11
2024-03-16T12:22:32.548Z,18.22
2024-03-16T12:25:26.614Z,18.29
2024-03-16T12:28:18.181Z,18.34
2024-03-16T12:31:08.359Z,18.35
2024-03-16T12:33:58.330Z,18.34
2024-03-16T12:36:49.392Z,18.31
2024-03-16T12:39:38.818Z,18.30
2024-03-16T12:42:28.886Z,18.34
2024-03-16T12:45:19.781Z,18.39
2024-03-16T12:48:09.563Z,18.53
2024-03-16T12:50:59.450Z,18.57
2024-03-16T12:53:49.231Z,18.55
2024-03-16T12:56:42.389Z,18.48
2024-03-16T12:59:37.082Z,18.46
2024-03-16T13:02:29.650Z,18.43
2024-03-16T13:05:19.418Z,18.37
2024-03-16T13:08:11.764Z,18.34
2024-03-16T13:11:03.320Z,18.31
2024-03-16T13:13:53.667Z,18.27
2024-03-16T13:16:43.034Z,18.23
2024-03-16T13:19:33.699Z,18.19
2024-03-16T13:22:24.095Z,18.14
2024-03-16T13:25:14.073Z,18.07
2024-03-16T13:28:04.474Z,18.00
2024-03-16T13:30:54.189Z,17.97
2024-03-16T13:33:44.177Z,17.93
2024-03-16T13:36:33.949Z,17.86
2024-03-16T13:39:26.411Z,17.82
2024-03-16T13:42:15.659Z,17.79
2024-03-16T13:45:05.745Z,17.80
2024-03-16T13:47:59.727Z,17.81
2024-03-16T13:50:49.917Z,17.77
2024-03-16T13:53:40.681Z,17.69
2024-03-16T13:56:33.123Z,17.66
2024-03-16T13:59:22.425Z,17.73
2024-03-16T14:02:15.491Z,17.81
2024-03-16T14:05:07.736Z,17.88
2024-03-16T14:07:56.992Z,17.89
2024-03-16T14:10:47.100Z,17.92
2024-03-16T14:13:37.664Z,17.93
2024-03-16T14:16:28.484Z,17.93
2024-03-16T14:19:18.358Z,17.89
2024-03-16T14:22:07.736Z,17.79
2024-03-16T14:24:57.103Z,17.73
2024-03-16T14:27:47.724Z,17.72
2024-03-16T14:30:37.380Z,17.70
2024-03-16T14:33:27.379Z,17.70
2024-03-16T14:36:19.331Z,17.71
2024-03-16T14:39:10.302Z,17.67
2024-03-16T14:41:59.806Z,17.68
2024-03-16T14:44:50.512Z,17.71
2024-03-16T14:47:40.783Z,17.74
2024-03-16T14:50:30.750Z,17.73
2024-03-16T14:53:20.601Z,17.74
2024-03-16T14:56:10.213Z,17.80
2024-03-16T14:58:59.911Z,17.87
2024-03-16T15:01:50.176Z,17.88
2024-03-16T15:04:40.269Z,17.83
2024-03-16T15:07:33.026Z,17.74
2024-03-16T15:10:22.877Z,17.62
2024-03-16T15:13:12.588Z,17.46
2024-03-16T15:16:02.459Z,17.28
2024-03-16T15:18:52.439Z,17.14
2024-03-16T15:21:42.494Z,17.02
2024-03-16T15:24:32.778Z,16.90
2024-03-16T15:27:54.588Z,16.75
2024-03-16T15:30:44.539Z,16.58
2024-03-16T15:33:34.421Z,16.45
2024-03-16T15:36:24.459Z,16.33
2024-03-16T15:39:14.498Z,16.22
2024-03-16T15:42:05.431Z,16.12
2024-03-16T15:44:58.602Z,16.03
2024-03-16T15:47:48.132Z,15.99
2024-03-16T15:50:37.924Z,15.95
2024-03-16T15:53:30.152Z,15.91
2024-03-16T15:56:19.635Z,15.87
2024-03-16T15:59:09.608Z,15.84
2024-03-16T16:01:59.595Z,15.80
2024-03-16T16:04:50.623Z,15.73
2024-03-16T16:07:41.839Z,15.63
2024-03-16T16:10:32.199Z,15.52
2024-03-16T16:13:26.613Z,15.40
2024-03-16T16:16:17.194Z,15.28
2024-03-16T16:19:07.490Z,15.18
2024-03-16T16:21:57.056Z,15.08
2024-03-16T16:24:50.758Z,14.99
2024-03-16T16:27:41.753Z,14.88
2024-03-16T16:30:31.543Z,14.79
2024-03-16T16:33:22.935Z,14.70
2024-03-16T16:36:13.336Z,14.60
2024-03-16T16:39:02.908Z,14.50
2024-03-16T16:41:52.686Z,14.40
2024-03-16T16:44:42.476Z,14.30
2024-03-16T16:47:32.376Z,14.21
2024-03-16T16:50:22.234Z,14.12
2024-03-16T16:53:12.313Z,14.05
2024-03-16T16:56:02.960Z,13.98
2024-03-16T16:58:53.419Z,13.89
2024-03-16T17:01:43.090Z,13.80
2024-03-16T17:04:34.092Z,13.72
2024-03-16T17:07:24.285Z,13.66
2024-03-16T17:10:13.650Z,13.60
2024-03-16T17:13:03.329Z,13.54
2024-03-16T17:15:53.012Z,13.48
2024-03-16T17:18:42.583Z,13.43
2024-03-16T17:21:32.980Z,13.39
2024-03-16T17:24:23.653Z,13.32
2024-03-16T17:27:19.279Z,13.22
2024-03-16T17:30:12.465Z,13.10
2024-03-16T17:33:02.447Z,12.98
2024-03-16T17:35:52.632Z,12.87
2024-03-16T17:38:43.128Z,12.76
2024-03-16T17:41:33.014Z,12.68
2024-03-16T17:44:23.613Z,12.64
2024-03-16T17:47:13.734Z,12.59
2024-03-16T17:50:03.576Z,12.55
2024-03-16T17:52:53.391Z,12.50
2024-03-16T17:55:43.245Z,12.45
2024-03-16T17:58:33.247Z,12.40
2024-03-16T18:01:22.705Z,12.35
2024-03-16T18:04:12.483Z,12.31
2024-03-16T18:07:02.869Z,12.27
2024-03-16T18:09:52.266Z,12.26
2024-03-16T18:12:42.231Z,12.28
2024-03-16T18:15:32.927Z,12.30
2024-03-16T18:18:22.715Z,12.28
2024-03-16T18:21:12.082Z,12.21
2024-03-16T18:24:02.884Z,12.14
2024-03-16T18:26:52.973Z,12.05
2024-03-16T18:29:42.679Z,11.96
2024-03-16T18:32:34.117Z,11.84
2024-03-16T18:35:27.094Z,11.73
2024-03-16T18:38:16.695Z,11.63
2024-03-16T18:41:08.425Z,11.56
2024-03-16T18:43:59.941Z,11.52
2024-03-16T18:46:50.138Z,11.48
2024-03-16T18:49:40.215Z,11.46
2024-03-16T18:52:30.508Z,11.46
2024-03-16T18:55:20.293Z,11.48
2024-03-16T18:58:09.869Z,11.51
2024-03-16T19:01:03.030Z,11.56
2024-03-16T19:03:53.030Z,11.60
2024-03-16T19:06:43.300Z,11.67
2024-03-16T19:09:32.782Z,11.73
2024-03-16T19:12:22.346Z,11.82
2024-03-16T19:15:12.972Z,11.90
2024-03-16T19:18:03.171Z,11.94
2024-03-16T19:20:52.713Z,11.94
2024-03-16T19:23:42.594Z,11.96
2024-03-16T19:26:32.064Z,11.99
2024-03-16T19:29:22.049Z,12.01
2024-03-16T19:32:11.424Z,12.04
2024-03-16T19:35:01.517Z,12.07
2024-03-16T19:37:53.257Z,12.09
2024-03-16T19:40:43.424Z,12.10
2024-03-16T19:43:33.000Z,12.07
2024-03-16T19:46:23.604Z,12.05
2024-03-16T19:49:13.869Z,12.02
2024-03-16T19:52:03.570Z,11.99
2024-03-16T19:54:53.255Z,11.98
2024-03-16T19:57:44.151Z,11.97
2024-03-16T20:00:34.244Z,11.90
2024-03-16T20:03:26.382Z,11.82
2024-03-16T20:06:16.161Z,11.75
2024-03-16T20:09:10.641Z,11.64
2024-03-16T20:12:06.160Z,11.55
2024-03-16T20:14:56.755Z,11.47
2024-03-16T20:17:46.646Z,11.45
2024-03-16T20:20:37.862Z,11.43
2024-03-16T20:23:29.270Z,11.41
2024-03-16T20:26:19.050Z,11.35
2024-03-16T20:29:09.904Z,11.29
2024-03-16T20:31:59.532Z,11.25
2024-03-16T20:34:49.414Z,11.23
2024-03-16T20:37:39.086Z,11.23
2024-03-16T20:40:30.113Z,11.20
2024-03-16T20:43:20.506Z,11.17
2024-03-16T20:46:10.376Z,11.14
2024-03-16T20:48:59.949Z,11.12
2024-03-16T20:51:49.833Z,11.09
2024-03-16T20:54:39.924Z,11.05
2024-03-16T20:57:31.141Z,11.02
2024-03-16T21:00:22.141Z,10.98
2024-03-16T21:03:12.951Z,10.94
2024-03-16T21:06:02.631Z,10.92
2024-03-16T21:08:52.508Z,10.91
2024-03-16T21:11:42.256Z,10.90
2024-03-16T21:14:32.682Z,10.90
2024-03-16T21:17:23.275Z,10.91
2024-03-16T21:20:13.172Z,10.91
2024-03-16T21:23:02.838Z,10.80
2024-03-16T21:25:52.725Z,10.66
2024-03-16T21:28:42.539Z,10.53
2024-03-16T21:31:32.489Z,10.42
2024-03-16T21:34:22.259Z,10.35
2024-03-16T21:37:13.942Z,10.28
2024-03-16T21:40:03.668Z,10.21
2024-03-16T21:42:53.466Z,10.15
2024-03-16T21:45:43.233Z,10.08
2024-03-16T21:48:33.019Z,10.01
2024-03-16T21:51:23.227Z,9.98
2024-03-16T21:54:13.404Z,9.94
2024-03-16T21:57:04.765Z,9.91
2024-03-16T21:59:54.066Z,9.88
2024-03-16T22:02:44.576Z,9.87
2024-03-16T22:05:35.288Z,9.85
2024-03-16T22:08:24.640Z,9.81
2024-03-16T22:11:15.382Z,9.79
2024-03-16T22:14:05.839Z,9.76
2024-03-16T22:16:55.413Z,9.71
2024-03-16T22:19:45.090Z,9.67
2024-03-16T22:22:34.982Z,9.64
2024-03-16T22:25:26.347Z,9.61
2024-03-16T22:28:16.071Z,9.55
2024-03-16T22:31:05.950Z,9.43
2024-03-16T22:33:56.554Z,9.29
2024-03-16T22:36:46.230Z,9.22
2024-03-16T22:39:36.113Z,9.16
2024-03-16T22:42:26.613Z,9.06
2024-03-16T22:45:18.156Z,8.99
2024-03-16T22:48:08.320Z,8.96
2024-03-16T22:50:57.486Z,8.93
2024-03-16T22:53:47.375Z,8.87
2024-03-16T22:56:38.164Z,8.84
2024-03-16T22:59:27.846Z,8.83
2024-03-16T23:02:17.525Z,8.83
2024-03-16T23:05:08.228Z,8.81
2024-03-16T23:08:00.184Z,8.76
2024-03-16T23:10:49.829Z,8.70
2024-03-16T23:13:39.613Z,8.63
2024-03-16T23:16:30.053Z,8.58
2024-03-16T23:19:19.783Z,8.52
2024-03-16T23:22:09.161Z,8.44
2024-03-16T23:24:59.095Z,8.36
2024-03-16T23:27:49.443Z,8.32
2024-03-16T23:30:39.221Z,8.31
2024-03-16T23:33:30.030Z,8.29
2024-03-16T23:36:20.003Z,8.25
2024-03-16T23:39:12.031Z,8.21
2024-03-16T23:42:01.917Z,8.19
2024-03-16T23:44:51.900Z,8.20
2024-03-16T23:47:43.938Z,8.21
2024-03-16T23:50:34.544Z,8.22
2024-03-16T23:53:24.414Z,8.19
2024-03-16T23:56:13.894Z,8.17
2024-03-16T23:59:04.091Z,8.12
